Kocubej, Russia
Current Conditions -  °F | °C
As of 6:00 AM on Monday 24 Nov 2014 (Local Time) from URML Reporting Station
Haze Haze  
Wind Chill: 24°   Ceiling: 3300
Heat Index: 32°   Visibility: 3mi
Dew Point: 28°   Wind: 9mph
Humidity: 87%   Direction: 360°N
Pressure: 30.36"   Gusts: NA
Location:  44.4°N, 46.55°E
Report Text: URML 240300Z 36004MPS 5000 BR OVC033 M00/M02 Q1028 NOSIG RMKQFE771/1028
Loading
Personal Weather Stations






























Interactive Weather Map New forecast layout! Learn more

10-Day Weather Forecast

Advertisements
Track Severe Weather on mobile